Jackson County Reynolds Field
KJXN : now visible

Airfield :











YOU CAN JOIN US ON...

 
LOGIN :

Register | Disclaimer

   EN    FR    IT 

 









Legend :    VFR   Marginal VFR   IFR   Intensive IFR   Very Intensive IFR
Visi :
Ceiling :
>= 8 km
>= 3000ft
5 to 8 km
1000 to 3000 ft
1500m to 5 km
500 to 1000 ft
800 to 1500m
200 to 500 ft
< 800m
< 200 ft
Symbols :   Thunderstorms  Fog  Heavy snow  Heavy precipitations  Wind > 20 kt






- Airport Elevation : 1001 ft


KJXN - Jackson County Reynolds Field

CURRENT METAR :
  • 260856Z AUTO 24009KT 2SM BR OVC003 01/M01 A2982 RMK AO2 SLP107 T00061006 53003

EXPIRED METARs :
  • 260805Z AUTO 23008KT 2SM BR OVC003 01/M01 A2981 RMK AO2 T00061006
  • 260756Z AUTO 23008KT 1 3/4SM BR OVC003 01/M01 A2981 RMK AO2 SLP105 T00061006
  • 260714Z AUTO 23009KT 1 3/4SM BR OVC003 01/M01 A2981 RMK AO2 T00061006
  • 260656Z AUTO 23009KT 2SM BR OVC003 01/M01 A2981 RMK AO2 SLP103 T00061006

TAF KJXN
Valid from the 26 at 06:00 until the 27 at 06:00 UTC


260540Z 2606/2706 23008KT 2SM -DZ BR OVC004
FM261200 25009KT 4SM BR OVC007
FM261800 26012G16KT 6SM BR OVC009
FM270000 26008KT 2SM -SN BR OVC007



MET'MAP, your aeronautical weather chart ! - Copyright ORBIFLY December 2007 - Disclaimer

ORBIFLY MET'MAP TEAM :

Programming & Development : Alexandra Zaïnal
Concept & original design : Baudouin d'Aumeries
Assistance for programming : Marc-Olivier Méhu
Technical & hardware support : Manuel Goepfert

Contact : metmap@orbifly.com




SOURCES & CREDITS :

   NOAA       Earth
Advisory